Forside
METAR-TAF:

METAR-TAF

Lufthavne :

Orsk, Rusland

Breddekreds: 51-04-18N, længdekreds: 058-35-48E, højde: 277 m

Aktuelle vejr

Denne rapport blev lavet for 10 minutter siden, kl. 13:00 UTC
Vind 12 kt fra vest
Temperatur 14°C
Fugtighed 67%
Tryk 1003 hPa
Sigt 10 km eller mere
Brudte skyer i en højde af 3000 ft, Cumulonimbus.

METAR: UWOR 191300Z 28006MPS 9999 BKN030CB 14/08 Q1003 R25/CLRD65 NOSIG RMK QFE729/0972

Tid: 18:10 (13:10 UTC)

Vejrudsigter

Denne rapport blev lavet for 2 timer og 10 minutter siden, kl. 11:00 UTC
Foreløbig gælder fra 19 på 12 UTC til 19 på 21 UTC
Vind 17 kt fra vest med vindstød på up til 27 kt
Sigt 10 km eller mere
Brudte skyer i en højde af 1100 ft
Brudte skyer i en højde af 2000 ft, Cumulonimbus.
Midlertidig
fra 19 på 12 UTC til 19 på 18 UTC
Vind 27 kt fra vestnordvest
Sigt: 3100 m
Brudte skyer i en højde af 700 ft
Brudte skyer i en højde af 1500 ft, Cumulonimbus.
let regnbyger

TAF: UWOR 191100Z 1912/1921 27009G14MPS 9999 BKN011 BKN020CB TEMPO 1912/1918 30014MPS 3100 -SHRA BKN007 BKN015CB

Vejrobservationer og prognoser fra mere end 4000 lufthavne (METAR og TAF).

De gule og røde prikker repræsenterer de meteorologiske stationer.

Flyt musen over at se navnet på stationen.

Så klik over at se vejr observationer og prognoser.

At skifte det kort: Klik på de grønne knapper med et sort kors for at zoome ind; på den grønne knap med en bindestreg for at zoome ud; eller på de grønne pile for tilstødende kort.


METAR-TAF: